createdAt,value
2019-03-13T00:01:47.794Z,5.83
2019-03-13T00:04:18.033Z,7.30
2019-03-13T00:06:48.597Z,8.00
2019-03-13T00:09:18.974Z,7.17
2019-03-13T00:11:48.218Z,6.63
2019-03-13T00:14:18.375Z,6.20
2019-03-13T00:16:48.254Z,6.07
2019-03-13T00:19:17.715Z,6.23
2019-03-13T00:21:47.174Z,6.50
2019-03-13T00:24:17.278Z,7.43
2019-03-13T00:29:19.587Z,7.30
2019-03-13T00:31:50.047Z,9.27
2019-03-13T00:34:20.247Z,5.33
2019-03-13T00:36:50.167Z,6.60
2019-03-13T00:39:20.327Z,7.60
2019-03-13T00:41:51.267Z,8.57
2019-03-13T00:44:21.407Z,5.33
2019-03-13T00:46:52.027Z,6.53
2019-03-13T00:49:22.327Z,8.03
2019-03-13T00:51:52.267Z,6.33
2019-03-13T00:54:21.547Z,5.60
2019-03-13T00:56:51.444Z,5.93
2019-03-13T00:59:21.479Z,6.20
2019-03-13T01:01:52.620Z,5.97
2019-03-13T01:04:23.506Z,5.33
2019-03-13T01:06:54.660Z,5.60
2019-03-13T01:09:24.359Z,6.90
2019-03-13T01:11:54.239Z,7.33
2019-03-13T01:14:23.399Z,8.47
2019-03-13T01:16:53.079Z,7.17
2019-03-13T01:19:22.839Z,5.87
2019-03-13T01:21:52.622Z,7.37
2019-03-13T01:24:22.379Z,6.63
2019-03-13T01:26:52.299Z,6.20
2019-03-13T01:29:21.959Z,7.10
2019-03-13T01:31:53.101Z,6.40
2019-03-13T01:34:24.339Z,5.60
2019-03-13T01:36:53.739Z,8.13
2019-03-13T01:39:23.840Z,6.77
2019-03-13T01:41:53.382Z,5.30
2019-03-13T01:44:23.001Z,7.20
2019-03-13T01:46:52.299Z,7.17
2019-03-13T01:49:21.737Z,5.43
2019-03-13T01:51:51.399Z,6.43
2019-03-13T01:54:22.288Z,5.57
2019-03-13T01:56:51.799Z,5.57
2019-03-13T01:59:21.540Z,6.13
2019-03-13T02:01:51.365Z,6.23
2019-03-13T02:04:21.084Z,6.70
2019-03-13T02:06:50.264Z,6.10
2019-03-13T02:09:19.764Z,7.57
2019-03-13T02:11:49.363Z,6.37
2019-03-13T02:14:19.204Z,5.53
2019-03-13T02:16:48.885Z,5.87
2019-03-13T02:19:18.266Z,6.23
2019-03-13T02:21:48.165Z,5.47
2019-03-13T02:24:17.906Z,6.47
2019-03-13T02:26:47.646Z,5.10
2019-03-13T02:29:17.725Z,5.80
2019-03-13T02:31:47.167Z,5.83
2019-03-13T02:34:16.965Z,6.00
2019-03-13T02:36:46.365Z,7.60
2019-03-13T02:39:16.180Z,7.33
2019-03-13T02:41:45.886Z,5.30
2019-03-13T02:44:15.385Z,6.10
2019-03-13T02:46:44.845Z,5.87
2019-03-13T02:49:14.573Z,6.47
2019-03-13T02:51:43.966Z,5.57
2019-03-13T02:54:14.205Z,5.83
2019-03-13T02:56:43.945Z,6.57
2019-03-13T02:59:13.489Z,6.23
2019-03-13T03:01:44.746Z,5.27
2019-03-13T03:04:14.747Z,6.43
2019-03-13T03:06:44.447Z,5.00
2019-03-13T03:09:13.941Z,6.93
2019-03-13T03:11:43.300Z,5.43
2019-03-13T03:14:12.720Z,5.20
2019-03-13T03:16:43.829Z,6.17
2019-03-13T03:19:13.540Z,5.70
2019-03-13T03:21:43.319Z,5.43
2019-03-13T03:24:12.941Z,4.80
2019-03-13T03:26:42.822Z,5.67
2019-03-13T03:29:12.079Z,6.47
2019-03-13T03:31:42.021Z,9.00
2019-03-13T03:34:11.550Z,5.97
2019-03-13T03:36:44.826Z,5.87
2019-03-13T03:39:14.901Z,5.67
2019-03-13T03:41:44.300Z,5.90
2019-03-13T03:44:14.680Z,5.70
2019-03-13T03:46:44.384Z,5.13
2019-03-13T03:49:14.223Z,5.77
2019-03-13T03:51:44.033Z,6.40
2019-03-13T03:54:14.044Z,5.30
2019-03-13T03:56:43.744Z,7.23
2019-03-13T03:59:16.479Z,6.83
2019-03-13T04:01:46.423Z,6.63
2019-03-13T04:04:16.322Z,6.70
2019-03-13T04:06:46.302Z,7.07
2019-03-13T04:09:16.004Z,7.80
2019-03-13T04:11:45.403Z,7.17
2019-03-13T04:14:14.817Z,7.40
2019-03-13T04:16:44.059Z,7.77
2019-03-13T04:19:13.623Z,6.67
2019-03-13T04:21:42.603Z,8.33
2019-03-13T04:24:15.745Z,6.77
2019-03-13T04:26:47.152Z,7.87
2019-03-13T04:29:16.739Z,5.80
2019-03-13T04:31:45.740Z,7.00
2019-03-13T04:34:15.647Z,7.47
2019-03-13T04:36:45.179Z,7.73
2019-03-13T04:39:14.870Z,6.57
2019-03-13T04:41:44.581Z,5.57
2019-03-13T04:44:17.560Z,5.77
2019-03-13T04:46:47.161Z,6.67
2019-03-13T04:49:20.199Z,5.90
2019-03-13T04:51:55.601Z,6.40
2019-03-13T04:54:24.940Z,5.90
2019-03-13T04:56:54.360Z,7.00
2019-03-13T04:59:24.299Z,6.00
2019-03-13T05:01:53.946Z,7.13
2019-03-13T05:04:23.926Z,6.97
2019-03-13T05:06:53.625Z,7.83
2019-03-13T05:09:23.765Z,5.77
2019-03-13T05:11:53.186Z,6.07
2019-03-13T05:14:22.680Z,6.37
2019-03-13T05:16:52.159Z,6.00
2019-03-13T05:19:22.201Z,7.10
2019-03-13T05:21:51.639Z,7.30
2019-03-13T05:24:21.420Z,5.67
2019-03-13T05:26:50.561Z,6.40
2019-03-13T05:29:20.603Z,5.93
2019-03-13T05:31:50.100Z,7.00
2019-03-13T05:34:19.925Z,7.90
2019-03-13T05:36:49.261Z,5.30
2019-03-13T05:39:19.839Z,6.53
2019-03-13T05:41:49.361Z,5.93
2019-03-13T05:44:19.479Z,6.87
2019-03-13T05:46:48.939Z,5.40
2019-03-13T05:49:18.579Z,5.90
2019-03-13T05:51:48.385Z,9.50
2019-03-13T05:54:18.815Z,7.00
2019-03-13T05:56:48.343Z,6.20
2019-03-13T05:59:20.940Z,8.77
2019-03-13T06:01:50.563Z,9.40
2019-03-13T06:04:20.184Z,8.77
2019-03-13T06:06:49.763Z,8.03
2019-03-13T06:09:19.645Z,8.43
2019-03-13T06:11:49.724Z,7.57
2019-03-13T06:14:18.806Z,6.43
2019-03-13T06:16:48.605Z,6.80
2019-03-13T06:19:18.426Z,9.57
2019-03-13T06:21:48.083Z,6.03
2019-03-13T06:24:17.783Z,5.63
2019-03-13T06:26:47.403Z,5.53
2019-03-13T06:29:16.844Z,7.50
2019-03-13T06:31:46.903Z,7.47
2019-03-13T06:34:16.626Z,9.50
2019-03-13T06:36:46.765Z,7.07
2019-03-13T06:39:16.447Z,5.87
2019-03-13T06:41:45.959Z,6.37
2019-03-13T06:44:15.646Z,9.00
2019-03-13T06:46:45.081Z,6.90
2019-03-13T06:49:14.640Z,7.83
2019-03-13T06:51:44.141Z,8.60
2019-03-13T06:54:14.002Z,7.93
2019-03-13T06:56:43.483Z,9.07
2019-03-13T06:59:26.359Z,7.93
2019-03-13T07:02:00.513Z,8.37
2019-03-13T07:04:47.605Z,7.87
2019-03-13T07:07:38.092Z,9.77
2019-03-13T07:10:11.089Z,11.20
2019-03-13T07:12:51.066Z,6.93
2019-03-13T07:15:25.320Z,9.60
2019-03-13T07:18:08.240Z,10.27
2019-03-13T07:20:41.725Z,7.43
2019-03-13T07:23:12.412Z,9.13
2019-03-13T07:25:43.005Z,8.67
2019-03-13T07:28:22.367Z,5.50
2019-03-13T07:30:55.777Z,11.23
2019-03-13T07:33:35.585Z,7.63
2019-03-13T07:36:09.964Z,8.70
2019-03-13T07:38:43.536Z,8.23
2019-03-13T07:41:29.474Z,9.27
2019-03-13T07:44:14.217Z,7.87
2019-03-13T07:46:54.846Z,9.43
2019-03-13T07:49:40.972Z,10.90
2019-03-13T07:52:33.893Z,8.63
2019-03-13T07:55:21.094Z,10.80
2019-03-13T07:58:00.810Z,11.47
2019-03-13T08:00:36.119Z,10.37
2019-03-13T08:03:19.487Z,9.00
2019-03-13T08:06:06.998Z,7.83
2019-03-13T08:08:54.679Z,9.60
2019-03-13T08:11:26.040Z,12.60
2019-03-13T08:13:57.419Z,11.20
2019-03-13T08:16:40.280Z,10.43
2019-03-13T08:19:11.459Z,13.80
2019-03-13T08:21:58.040Z,12.60
2019-03-13T08:24:45.834Z,18.30
2019-03-13T08:27:19.960Z,11.80
2019-03-13T08:29:53.639Z,14.73
2019-03-13T08:32:40.944Z,11.67
2019-03-13T08:35:26.699Z,14.43
2019-03-13T08:38:09.722Z,15.63
2019-03-13T08:40:52.920Z,8.40
2019-03-13T08:43:23.861Z,12.37
2019-03-13T08:46:00.699Z,10.93
2019-03-13T08:48:31.439Z,11.67
2019-03-13T08:51:05.490Z,11.53
2019-03-13T08:53:36.299Z,11.80
2019-03-13T08:56:13.340Z,8.43
2019-03-13T08:58:44.659Z,11.27
2019-03-13T09:01:22.940Z,8.90
2019-03-13T09:03:59.839Z,12.97
2019-03-13T09:06:42.880Z,10.73
2019-03-13T09:09:25.803Z,8.53
2019-03-13T09:12:08.999Z,9.87
2019-03-13T09:14:51.825Z,9.43
2019-03-13T09:17:32.368Z,10.47
2019-03-13T09:20:19.960Z,13.67
2019-03-13T09:22:50.840Z,12.40
2019-03-13T09:25:38.187Z,9.80
2019-03-13T09:28:12.099Z,8.80
2019-03-13T09:30:55.380Z,9.67
2019-03-13T09:33:31.940Z,9.33
2019-03-13T09:36:15.319Z,12.40
2019-03-13T09:39:01.279Z,8.87
2019-03-13T09:41:43.840Z,10.63
2019-03-13T09:44:23.900Z,11.30
2019-03-13T09:47:11.100Z,8.93
2019-03-13T09:49:58.819Z,8.83
2019-03-13T09:52:32.700Z,12.37
2019-03-13T09:55:19.279Z,10.17
2019-03-13T09:58:15.441Z,8.47
2019-03-13T10:01:02.481Z,5.93
2019-03-13T10:03:35.959Z,5.37
2019-03-13T10:06:12.844Z,3.40
2019-03-13T10:08:46.382Z,2.63
2019-03-13T10:11:37.887Z,2.30
2019-03-13T10:14:26.613Z,3.10
2019-03-13T10:17:10.621Z,2.53
2019-03-13T10:19:51.028Z,3.43
2019-03-13T10:22:22.014Z,4.00
2019-03-13T10:24:55.447Z,4.03
2019-03-13T10:27:29.427Z,3.03
2019-03-13T10:30:03.127Z,3.10
2019-03-13T10:32:46.507Z,2.40
2019-03-13T10:35:17.607Z,2.40
2019-03-13T10:37:53.967Z,2.73
2019-03-13T10:40:27.907Z,2.40
2019-03-13T10:43:15.184Z,2.43
2019-03-13T10:45:55.162Z,3.40
2019-03-13T10:48:31.824Z,2.63
2019-03-13T10:51:18.719Z,2.50
2019-03-13T10:53:59.959Z,3.77
2019-03-13T10:56:36.559Z,2.90
2019-03-13T10:59:23.719Z,2.17
2019-03-13T11:01:57.629Z,2.50
2019-03-13T11:04:31.567Z,5.23
2019-03-13T11:07:18.282Z,5.03
2019-03-13T11:09:59.046Z,2.73
2019-03-13T11:12:29.725Z,2.10
2019-03-13T11:15:03.272Z,1.30
2019-03-13T11:17:36.525Z,1.50
2019-03-13T11:20:09.682Z,1.40
2019-03-13T11:22:55.222Z,1.40
2019-03-13T11:25:36.043Z,1.10
2019-03-13T11:28:09.400Z,2.30
2019-03-13T11:30:40.061Z,1.67
2019-03-13T11:33:22.887Z,1.20
2019-03-13T11:35:56.519Z,1.90
2019-03-13T11:38:39.622Z,1.50
2019-03-13T11:41:28.922Z,1.30
2019-03-13T11:44:01.343Z,1.43
2019-03-13T11:46:41.823Z,1.70
2019-03-13T11:49:33.409Z,1.13
2019-03-13T11:52:15.943Z,1.10
2019-03-13T11:54:47.267Z,1.40
2019-03-13T11:57:18.105Z,1.50
2019-03-13T11:59:52.305Z,1.33
2019-03-13T12:02:32.203Z,1.30
2019-03-13T12:05:06.463Z,2.20
2019-03-13T12:07:43.658Z,1.40
2019-03-13T12:10:20.374Z,1.87
2019-03-13T12:13:13.954Z,1.60
2019-03-13T12:15:44.920Z,2.43
2019-03-13T12:18:16.180Z,1.90
2019-03-13T12:20:59.627Z,2.30
2019-03-13T12:23:30.540Z,2.30
2019-03-13T12:26:04.502Z,2.47
2019-03-13T12:28:38.728Z,3.40
2019-03-13T12:31:14.053Z,3.00
2019-03-13T12:33:51.647Z,3.50
2019-03-13T12:36:28.455Z,3.20
2019-03-13T12:39:04.907Z,3.40
2019-03-13T12:41:52.487Z,3.70
2019-03-13T12:44:26.241Z,5.03
2019-03-13T12:47:02.689Z,4.37
2019-03-13T12:49:33.404Z,4.30
2019-03-13T12:52:22.432Z,4.70
2019-03-13T12:54:53.203Z,6.17
2019-03-13T12:57:39.500Z,5.97
2019-03-13T13:00:20.928Z,7.23
2019-03-13T13:02:55.010Z,8.27
2019-03-13T13:05:35.328Z,7.73
2019-03-13T13:08:18.419Z,7.20
2019-03-13T13:10:55.199Z,7.17
2019-03-13T13:13:28.802Z,6.33
2019-03-13T13:16:00.001Z,7.17
2019-03-13T13:18:37.739Z,6.03
2019-03-13T13:21:11.902Z,6.77
2019-03-13T13:23:43.622Z,7.13
2019-03-13T13:26:16.815Z,5.27
2019-03-13T13:28:51.259Z,5.13
2019-03-13T13:31:21.260Z,5.37
2019-03-13T13:33:52.839Z,5.03
2019-03-13T13:36:26.565Z,5.43
2019-03-13T13:39:00.986Z,6.87
2019-03-13T13:41:30.317Z,6.73
2019-03-13T13:44:00.320Z,5.07
2019-03-13T13:46:30.659Z,5.07
2019-03-13T13:49:00.750Z,4.80
2019-03-13T13:51:32.727Z,5.77
2019-03-13T13:54:01.699Z,3.83
2019-03-13T13:56:31.105Z,3.80
2019-03-13T13:59:01.068Z,3.70
2019-03-13T14:01:31.401Z,4.50
2019-03-13T14:04:00.922Z,3.80
2019-03-13T14:06:32.940Z,2.90
2019-03-13T14:09:02.699Z,2.37
2019-03-13T14:11:32.553Z,3.17
2019-03-13T14:14:02.274Z,3.07
2019-03-13T14:16:32.108Z,2.20
2019-03-13T14:19:03.323Z,2.40
2019-03-13T14:21:33.559Z,2.10
2019-03-13T14:24:02.899Z,2.10
2019-03-13T14:26:32.719Z,2.00
2019-03-13T14:29:04.988Z,3.13
2019-03-13T14:31:35.659Z,2.60
2019-03-13T14:34:06.579Z,1.73
2019-03-13T14:36:39.019Z,1.83
2019-03-13T14:39:11.561Z,1.80
2019-03-13T14:41:46.639Z,2.20
2019-03-13T14:44:20.016Z,2.23
2019-03-13T14:46:52.620Z,1.90
2019-03-13T14:49:23.560Z,2.20
2019-03-13T14:51:53.239Z,2.97
2019-03-13T14:54:23.238Z,2.33
2019-03-13T14:56:52.681Z,2.33
2019-03-13T14:59:22.199Z,3.27
2019-03-13T15:01:51.807Z,2.70
2019-03-13T15:04:21.527Z,2.73
2019-03-13T15:06:50.801Z,3.10
2019-03-13T15:09:20.319Z,5.57
2019-03-13T15:11:49.580Z,3.63
2019-03-13T15:14:19.479Z,4.67
2019-03-13T15:16:49.219Z,4.17
2019-03-13T15:19:18.981Z,3.40
2019-03-13T15:21:48.580Z,3.00
2019-03-13T15:24:18.098Z,3.00
2019-03-13T15:26:47.679Z,2.40
2019-03-13T15:29:20.108Z,6.50
2019-03-13T15:31:49.251Z,4.20
2019-03-13T15:34:19.348Z,3.00
2019-03-13T15:36:48.608Z,3.37
2019-03-13T15:39:18.348Z,3.43
2019-03-13T15:41:48.203Z,3.10
2019-03-13T15:44:17.832Z,4.33
2019-03-13T15:46:47.363Z,2.30
2019-03-13T15:49:17.068Z,2.40
2019-03-13T15:51:47.083Z,2.97
2019-03-13T15:54:16.940Z,2.30
2019-03-13T15:56:46.619Z,2.43
2019-03-13T15:59:16.319Z,2.70
2019-03-13T16:01:46.463Z,2.73
2019-03-13T16:04:16.324Z,5.40
2019-03-13T16:06:46.606Z,3.00
2019-03-13T16:09:16.703Z,5.67
2019-03-13T16:11:46.703Z,7.37
2019-03-13T16:14:15.906Z,3.33
2019-03-13T16:16:46.994Z,3.30
2019-03-13T16:19:16.584Z,3.83
2019-03-13T16:21:45.940Z,4.97
2019-03-13T16:24:15.639Z,4.63
2019-03-13T16:26:45.406Z,4.80
2019-03-13T16:29:15.009Z,4.10
2019-03-13T16:31:44.679Z,5.27
2019-03-13T16:34:31.995Z,4.57
2019-03-13T16:37:01.903Z,4.20
2019-03-13T16:39:31.730Z,3.73
2019-03-13T16:42:01.424Z,3.63
2019-03-13T16:44:31.882Z,4.83
2019-03-13T16:47:02.067Z,4.93
2019-03-13T16:49:32.582Z,3.97
2019-03-13T16:52:04.774Z,5.77
2019-03-13T16:54:34.530Z,4.30
2019-03-13T16:57:04.337Z,5.53
2019-03-13T16:59:35.131Z,4.57
2019-03-13T17:02:04.920Z,6.80
2019-03-13T17:04:34.694Z,9.53
2019-03-13T17:07:04.700Z,6.80
2019-03-13T17:09:34.352Z,7.13
2019-03-13T17:12:04.445Z,6.10
2019-03-13T17:14:34.843Z,6.37
2019-03-13T17:17:04.864Z,5.10
2019-03-13T17:19:34.680Z,5.37
2019-03-13T17:22:04.341Z,4.90
2019-03-13T17:24:34.759Z,6.37
2019-03-13T17:27:05.523Z,5.13
2019-03-13T17:29:38.550Z,4.80
2019-03-13T17:32:09.291Z,5.47
2019-03-13T17:34:40.283Z,6.10
2019-03-13T17:37:11.183Z,7.60
2019-03-13T17:39:44.975Z,8.67
2019-03-13T17:42:16.101Z,7.77
2019-03-13T17:44:46.699Z,6.57
2019-03-13T17:47:18.269Z,6.53
2019-03-13T17:49:49.419Z,6.70
2019-03-13T17:52:23.752Z,6.07
2019-03-13T17:54:55.128Z,7.60
2019-03-13T17:57:26.547Z,6.83
2019-03-13T17:59:57.103Z,5.90
2019-03-13T18:02:28.354Z,7.27
2019-03-13T18:05:00.402Z,6.93
2019-03-13T18:07:32.724Z,7.23
2019-03-13T18:10:04.199Z,6.57
2019-03-13T18:12:35.483Z,6.60
2019-03-13T18:15:08.685Z,8.07
2019-03-13T18:17:40.024Z,7.43
2019-03-13T18:20:16.453Z,7.50
2019-03-13T18:22:47.547Z,7.47
2019-03-13T18:25:20.569Z,8.17
2019-03-13T18:27:52.879Z,7.60
2019-03-13T18:30:28.548Z,6.23
2019-03-13T18:32:59.484Z,7.20
2019-03-13T18:35:32.463Z,7.50
2019-03-13T18:38:04.940Z,7.93
2019-03-13T18:40:38.419Z,7.20
2019-03-13T18:43:11.080Z,7.23
2019-03-13T18:45:42.419Z,7.33
2019-03-13T18:48:14.699Z,7.13
2019-03-13T18:50:45.719Z,6.70
2019-03-13T18:53:19.699Z,7.10
2019-03-13T18:55:54.875Z,7.67
2019-03-13T18:58:24.210Z,7.70
2019-03-13T19:00:58.296Z,7.67
2019-03-13T19:03:29.508Z,8.37
2019-03-13T19:06:04.377Z,7.77
2019-03-13T19:08:35.214Z,7.13
2019-03-13T19:11:06.838Z,7.40
2019-03-13T19:13:38.660Z,10.70
2019-03-13T19:16:10.819Z,9.37
2019-03-13T19:18:41.389Z,8.80
2019-03-13T19:21:17.620Z,9.03
2019-03-13T19:23:48.206Z,10.87
2019-03-13T19:26:18.299Z,10.67
2019-03-13T19:28:49.901Z,10.50
2019-03-13T19:31:20.688Z,9.80
2019-03-13T19:33:52.079Z,9.90
2019-03-13T19:36:23.836Z,10.30
2019-03-13T19:38:54.281Z,10.93
2019-03-13T19:41:26.179Z,10.30
2019-03-13T19:43:56.698Z,12.13
2019-03-13T19:46:32.201Z,9.47
2019-03-13T19:49:03.380Z,10.83
2019-03-13T19:51:36.139Z,13.23
2019-03-13T19:54:09.719Z,11.33
2019-03-13T19:56:43.368Z,11.87
2019-03-13T19:59:17.981Z,9.87
2019-03-13T20:01:50.788Z,12.33
2019-03-13T20:04:26.221Z,11.80
2019-03-13T20:06:57.702Z,13.20
2019-03-13T20:09:29.981Z,15.30
2019-03-13T20:12:01.821Z,18.47
2019-03-13T20:14:33.382Z,15.10
2019-03-13T20:17:04.601Z,15.07
2019-03-13T20:19:38.479Z,13.97
2019-03-13T20:22:11.061Z,14.17
2019-03-13T20:24:43.243Z,13.97
2019-03-13T20:27:15.620Z,13.73
2019-03-13T20:29:47.240Z,13.90
2019-03-13T20:32:19.000Z,12.97
2019-03-13T20:34:50.630Z,13.90
2019-03-13T20:37:24.826Z,13.13
2019-03-13T20:40:00.476Z,13.37
2019-03-13T20:42:32.714Z,11.87
2019-03-13T20:45:04.325Z,13.93
2019-03-13T20:47:36.385Z,12.03
2019-03-13T20:50:10.086Z,10.57
2019-03-13T20:52:41.404Z,11.03
2019-03-13T20:55:20.497Z,11.67
2019-03-13T20:57:52.262Z,13.00
2019-03-13T21:00:27.493Z,13.27
2019-03-13T21:03:02.844Z,13.40
2019-03-13T21:05:35.233Z,13.23
2019-03-13T21:08:06.280Z,13.33
2019-03-13T21:10:38.922Z,13.43
2019-03-13T21:13:10.525Z,13.23
2019-03-13T21:15:43.659Z,13.60
2019-03-13T21:18:14.505Z,14.77
2019-03-13T21:20:46.424Z,14.97
2019-03-13T21:23:18.266Z,14.43
2019-03-13T21:25:49.145Z,15.67
2019-03-13T21:28:21.564Z,15.90
2019-03-13T21:30:54.505Z,16.20
2019-03-13T21:33:26.147Z,16.73
2019-03-13T21:35:58.157Z,17.13
2019-03-13T21:38:29.723Z,14.77
2019-03-13T21:41:01.705Z,15.80
2019-03-13T21:43:33.723Z,15.87
2019-03-13T21:46:06.716Z,16.60
2019-03-13T21:48:36.828Z,16.33
2019-03-13T21:51:10.583Z,16.17
2019-03-13T21:53:41.506Z,16.70
2019-03-13T21:56:12.723Z,16.73
2019-03-13T21:58:45.530Z,17.53
2019-03-13T22:01:20.202Z,16.93
2019-03-13T22:03:52.508Z,17.87
2019-03-13T22:06:28.743Z,19.63
2019-03-13T22:08:57.639Z,20.47
2019-03-13T22:11:29.549Z,16.77
2019-03-13T22:14:01.189Z,18.97
2019-03-13T22:16:33.068Z,19.70
2019-03-13T22:19:05.909Z,19.63
2019-03-13T22:21:39.441Z,21.43
2019-03-13T22:24:11.099Z,17.93
2019-03-13T22:26:42.360Z,19.30
2019-03-13T22:29:13.981Z,20.57
2019-03-13T22:31:45.099Z,19.87
2019-03-13T22:34:16.219Z,20.70
2019-03-13T22:36:48.199Z,23.73
2019-03-13T22:39:19.720Z,20.67
2019-03-13T22:41:51.561Z,19.90
2019-03-13T22:44:23.041Z,20.90
2019-03-13T22:46:54.160Z,19.63
2019-03-13T22:49:31.960Z,20.73
2019-03-13T22:52:04.039Z,20.60
2019-03-13T22:54:35.568Z,23.80
2019-03-13T22:57:10.859Z,22.77
2019-03-13T22:59:42.719Z,21.00
2019-03-13T23:02:16.604Z,23.27
2019-03-13T23:04:52.684Z,23.87
2019-03-13T23:07:29.224Z,23.60
2019-03-13T23:10:01.704Z,23.70
2019-03-13T23:12:34.063Z,25.87
2019-03-13T23:15:06.124Z,24.50
2019-03-13T23:17:37.111Z,24.13
2019-03-13T23:20:11.143Z,22.93
2019-03-13T23:22:44.483Z,26.17
2019-03-13T23:25:17.721Z,25.87
2019-03-13T23:27:50.837Z,24.63
2019-03-13T23:30:25.344Z,27.70
2019-03-13T23:32:59.157Z,26.70
2019-03-13T23:35:39.663Z,29.17
2019-03-13T23:38:12.583Z,31.40
2019-03-13T23:40:46.423Z,29.63
2019-03-13T23:43:22.863Z,32.53
2019-03-13T23:45:56.203Z,30.70
2019-03-13T23:48:28.063Z,33.03
2019-03-13T23:51:00.583Z,31.40
2019-03-13T23:53:32.172Z,31.20
2019-03-13T23:56:06.784Z,29.07
2019-03-13T23:58:38.279Z,29.53
